createdAt,value
2017-11-04T00:02:44.208Z,1006.50
2017-11-04T00:07:41.001Z,1006.52
2017-11-04T00:12:37.062Z,1006.30
2017-11-04T00:17:32.515Z,1006.35
2017-11-04T00:22:28.176Z,1006.28
2017-11-04T00:27:24.050Z,1006.31
2017-11-04T00:32:20.123Z,1006.13
2017-11-04T00:37:15.888Z,1006.09
2017-11-04T00:42:11.582Z,1006.15
2017-11-04T00:47:09.422Z,1006.09
2017-11-04T00:52:04.543Z,1006.01
2017-11-04T00:57:01.189Z,1005.93
2017-11-04T01:01:57.541Z,1005.81
2017-11-04T01:06:53.245Z,1005.75
2017-11-04T01:11:50.246Z,1005.79
2017-11-04T01:16:45.667Z,1005.69
2017-11-04T01:21:41.471Z,1005.62
2017-11-04T01:26:37.062Z,1005.57
2017-11-04T01:31:32.689Z,1005.64
2017-11-04T01:36:28.649Z,1005.56
2017-11-04T01:41:25.328Z,1005.40
2017-11-04T01:46:20.814Z,1005.48
2017-11-04T01:51:17.061Z,1005.36
2017-11-04T01:56:14.890Z,1005.36
2017-11-04T02:01:11.250Z,1005.23
2017-11-04T02:06:07.417Z,1005.13
2017-11-04T02:11:05.515Z,1005.11
2017-11-04T02:16:00.878Z,1005.04
2017-11-04T02:20:56.491Z,1005.00
2017-11-04T02:25:52.450Z,1004.98
2017-11-04T02:30:48.152Z,1004.84
2017-11-04T02:35:43.998Z,1004.79
2017-11-04T02:40:39.930Z,1004.83
2017-11-04T02:45:36.628Z,1004.71
2017-11-04T02:50:32.271Z,1004.67
2017-11-04T02:55:27.954Z,1004.70
2017-11-04T03:00:25.081Z,1004.64
2017-11-04T03:05:20.761Z,1004.57
2017-11-04T03:10:16.134Z,1004.63
2017-11-04T03:15:12.867Z,1004.55
2017-11-04T03:20:08.315Z,1004.51
2017-11-04T03:25:04.240Z,1004.45
2017-11-04T03:29:59.960Z,1004.49
2017-11-04T03:34:55.736Z,1004.42
2017-11-04T03:39:53.182Z,1004.45
2017-11-04T03:44:49.476Z,1004.36
2017-11-04T03:49:44.941Z,1004.36
2017-11-04T03:54:40.817Z,1004.31
2017-11-04T03:59:36.664Z,1004.32
2017-11-04T04:04:32.425Z,1004.18
2017-11-04T04:09:28.256Z,1004.24
2017-11-04T04:14:24.038Z,1004.22
2017-11-04T04:19:20.838Z,1004.09
2017-11-04T04:24:17.333Z,1004.14
2017-11-04T04:29:12.659Z,1004.13
2017-11-04T04:34:08.470Z,1004.04
2017-11-04T04:39:04.142Z,1003.98
2017-11-04T04:44:00.035Z,1003.88
2017-11-04T04:48:55.687Z,1003.89
2017-11-04T04:53:51.380Z,1003.83
2017-11-04T04:58:47.289Z,1003.86
2017-11-04T05:03:43.188Z,1003.92
2017-11-04T05:08:39.903Z,1003.75
2017-11-04T05:13:37.375Z,1003.57
2017-11-04T05:18:32.501Z,1003.58
2017-11-04T05:23:29.141Z,1003.57
2017-11-04T05:28:24.559Z,1003.53
2017-11-04T05:33:21.302Z,1003.53
2017-11-04T05:38:19.311Z,1003.50
2017-11-04T05:43:14.517Z,1003.58
2017-11-04T05:48:11.301Z,1003.39
2017-11-04T05:53:07.123Z,1003.33
2017-11-04T05:58:03.864Z,1003.24
2017-11-04T06:02:59.404Z,1003.37
2017-11-04T06:07:56.164Z,1003.30
2017-11-04T06:12:52.540Z,1003.26
2017-11-04T06:17:49.005Z,1003.31
2017-11-04T06:22:45.526Z,1003.14
2017-11-04T06:27:40.947Z,1003.14
2017-11-04T06:32:37.305Z,1003.14
2017-11-04T06:37:33.066Z,1003.16
2017-11-04T06:42:28.626Z,1003.10
2017-11-04T06:47:24.525Z,1003.06
2017-11-04T06:52:21.281Z,1002.98
2017-11-04T06:57:16.364Z,1002.96
2017-11-04T07:02:12.517Z,1003.00
2017-11-04T07:07:08.324Z,1002.72
2017-11-04T07:12:03.841Z,1002.80
2017-11-04T07:16:59.582Z,1002.86
2017-11-04T07:21:56.301Z,1002.82
2017-11-04T07:26:52.061Z,1002.86
2017-11-04T07:31:48.814Z,1002.82
2017-11-04T07:36:47.463Z,1002.80
2017-11-04T07:41:43.180Z,1002.90
2017-11-04T07:46:39.226Z,1002.87
2017-11-04T07:51:35.464Z,1002.84
2017-11-04T07:56:31.042Z,1002.77
2017-11-04T08:01:27.748Z,1002.62
2017-11-04T08:06:23.242Z,1002.73
2017-11-04T08:11:21.067Z,1002.59
2017-11-04T08:16:16.786Z,1002.60
2017-11-04T08:21:12.238Z,1002.50
2017-11-04T08:26:07.899Z,1002.52
2017-11-04T08:31:03.577Z,1002.47
2017-11-04T08:36:00.186Z,1002.52
2017-11-04T08:40:56.083Z,1002.51
2017-11-04T08:45:53.838Z,1002.43
2017-11-04T08:50:49.149Z,1002.30
2017-11-04T08:55:45.040Z,1002.21
2017-11-04T09:00:42.224Z,1002.07
2017-11-04T09:05:37.727Z,1002.02
2017-11-04T09:10:33.213Z,1001.97
2017-11-04T09:15:28.932Z,1001.93
2017-11-04T09:20:24.991Z,1001.98
2017-11-04T09:25:21.018Z,1002.03
2017-11-04T09:30:18.072Z,1001.95
2017-11-04T09:35:14.873Z,1001.94
2017-11-04T09:40:12.047Z,1001.91
2017-11-04T09:45:08.673Z,1001.87
2017-11-04T09:50:04.164Z,1001.77
2017-11-04T09:55:01.329Z,1001.61
2017-11-04T09:59:57.911Z,1001.59
2017-11-04T10:04:54.146Z,1001.61
2017-11-04T10:09:50.134Z,1001.41
2017-11-04T10:14:46.229Z,1001.31
2017-11-04T10:19:42.336Z,1001.25
2017-11-04T10:24:38.443Z,1000.99
2017-11-04T10:29:35.464Z,1000.99
2017-11-04T10:34:31.524Z,1000.86
2017-11-04T10:39:28.582Z,1000.85
2017-11-04T10:44:24.116Z,1000.81
2017-11-04T10:49:20.736Z,1000.74
2017-11-04T10:54:17.571Z,1000.68
2017-11-04T10:59:13.225Z,1000.56
2017-11-04T11:04:09.430Z,1000.61
2017-11-04T11:09:04.907Z,1000.63
2017-11-04T11:14:01.030Z,1000.51
2017-11-04T11:18:57.268Z,1000.43
2017-11-04T11:23:53.046Z,1000.50
2017-11-04T11:28:48.954Z,1000.52
2017-11-04T11:33:45.834Z,1000.40
2017-11-04T11:38:42.706Z,1000.33
2017-11-04T11:43:39.578Z,1000.50
2017-11-04T11:48:35.560Z,1000.41
2017-11-04T11:53:31.956Z,1000.37
2017-11-04T11:58:28.784Z,1000.09
2017-11-04T12:03:24.367Z,1000.11
2017-11-04T12:08:21.250Z,1000.02
2017-11-04T12:13:16.675Z,999.87
2017-11-04T12:18:13.632Z,999.61
2017-11-04T12:23:09.155Z,999.58
2017-11-04T12:28:05.269Z,999.62
2017-11-04T12:33:02.542Z,999.39
2017-11-04T12:37:59.122Z,999.40
2017-11-04T12:42:54.870Z,999.49
2017-11-04T12:47:50.639Z,999.47
2017-11-04T12:52:46.501Z,999.32
2017-11-04T12:57:43.749Z,999.30
2017-11-04T13:02:41.166Z,999.19
2017-11-04T13:07:36.659Z,999.08
2017-11-04T13:12:32.870Z,999.02
2017-11-04T13:17:28.930Z,998.85
2017-11-04T13:22:25.672Z,998.98
2017-11-04T13:27:21.272Z,998.84
2017-11-04T13:32:17.305Z,998.82
2017-11-04T13:37:13.391Z,998.86
2017-11-04T13:42:09.765Z,998.81
2017-11-04T13:47:07.667Z,998.84
2017-11-04T13:52:02.747Z,998.63
2017-11-04T13:57:01.030Z,998.53
2017-11-04T14:01:56.194Z,998.50
2017-11-04T14:06:52.757Z,998.46
2017-11-04T14:11:48.500Z,998.48
2017-11-04T14:16:46.209Z,998.30
2017-11-04T14:21:41.508Z,998.28
2017-11-04T14:26:37.882Z,998.18
2017-11-04T14:31:33.623Z,998.17
2017-11-04T14:36:30.608Z,998.16
2017-11-04T14:41:27.147Z,998.25
2017-11-04T14:46:22.406Z,998.15
2017-11-04T14:51:18.278Z,998.14
2017-11-04T14:56:15.278Z,997.91
2017-11-04T15:01:12.190Z,998.02
2017-11-04T15:06:07.859Z,997.89
2017-11-04T15:11:06.248Z,997.98
2017-11-04T15:16:02.156Z,997.90
2017-11-04T15:20:58.244Z,997.79
2017-11-04T15:25:54.074Z,997.73
2017-11-04T15:30:51.465Z,997.80
2017-11-04T15:35:47.316Z,997.77
2017-11-04T15:40:43.280Z,997.71
2017-11-04T15:45:40.276Z,997.73
2017-11-04T15:50:37.036Z,997.71
2017-11-04T15:55:33.378Z,997.80
2017-11-04T16:00:30.181Z,997.75
2017-11-04T16:05:25.936Z,997.77
2017-11-04T16:10:21.746Z,997.87
2017-11-04T16:15:18.754Z,997.89
2017-11-04T16:20:14.546Z,997.89
2017-11-04T16:25:11.800Z,997.81
2017-11-04T16:30:08.234Z,997.79
2017-11-04T16:35:04.292Z,997.74
2017-11-04T16:40:01.391Z,997.76
2017-11-04T16:44:58.149Z,997.75
2017-11-04T16:49:54.506Z,997.80
2017-11-04T16:54:51.999Z,997.88
2017-11-04T16:59:48.618Z,997.75
2017-11-04T17:04:44.889Z,997.81
2017-11-04T17:09:41.610Z,997.76
2017-11-04T17:14:37.171Z,997.69
2017-11-04T17:19:32.827Z,997.70
2017-11-04T17:24:28.908Z,997.67
2017-11-04T17:29:26.353Z,997.62
2017-11-04T17:34:21.968Z,997.71
2017-11-04T17:39:17.604Z,997.65
2017-11-04T17:44:13.512Z,997.69
2017-11-04T17:49:09.746Z,997.66
2017-11-04T17:54:05.705Z,997.68
2017-11-04T17:59:02.699Z,997.64
2017-11-04T18:03:59.409Z,997.63
2017-11-04T18:08:54.808Z,997.54
2017-11-04T18:13:50.685Z,997.50
2017-11-04T18:18:46.538Z,997.45
2017-11-04T18:23:43.378Z,997.51
2017-11-04T18:28:38.829Z,997.49
2017-11-04T18:33:34.813Z,997.44
2017-11-04T18:38:31.654Z,997.45
2017-11-04T18:43:27.150Z,997.43
2017-11-04T18:48:24.177Z,997.53
2017-11-04T18:53:20.836Z,997.59
2017-11-04T18:58:16.217Z,997.47
2017-11-04T19:03:13.089Z,997.54
2017-11-04T19:08:08.815Z,997.48
2017-11-04T19:13:04.652Z,997.52
2017-11-04T19:18:00.408Z,997.56
2017-11-04T19:22:57.238Z,997.58
2017-11-04T19:27:53.105Z,997.57
2017-11-04T19:32:48.753Z,997.65
2017-11-04T19:37:44.575Z,997.63
2017-11-04T19:42:41.033Z,997.71
2017-11-04T19:47:37.006Z,997.68
2017-11-04T19:52:33.737Z,997.65
2017-11-04T19:57:29.636Z,997.60
2017-11-04T20:02:25.172Z,997.75
2017-11-04T20:07:22.499Z,997.66
2017-11-04T20:12:18.164Z,997.73
2017-11-04T20:17:16.061Z,997.69
2017-11-04T20:22:12.537Z,997.59
2017-11-04T20:27:08.155Z,997.54
2017-11-04T20:32:03.875Z,997.60
2017-11-04T20:37:01.511Z,997.54
2017-11-04T20:41:58.627Z,997.59
2017-11-04T20:46:54.330Z,997.57
2017-11-04T20:51:50.515Z,997.60
2017-11-04T20:56:46.537Z,997.56
2017-11-04T21:01:43.430Z,997.72
2017-11-04T21:06:40.395Z,997.71
2017-11-04T21:11:36.021Z,997.71
2017-11-04T21:16:31.929Z,997.74
2017-11-04T21:21:27.822Z,997.83
2017-11-04T21:26:23.271Z,997.65
2017-11-04T21:31:19.496Z,997.72
2017-11-04T21:36:15.226Z,997.79
2017-11-04T21:41:12.025Z,997.78
2017-11-04T21:46:08.916Z,997.77
2017-11-04T21:51:05.427Z,997.74
2017-11-04T21:56:01.705Z,997.69
2017-11-04T22:00:57.423Z,997.77
2017-11-04T22:05:53.285Z,997.88
2017-11-04T22:10:49.363Z,997.94
2017-11-04T22:15:45.918Z,997.94
2017-11-04T22:20:44.404Z,997.99
2017-11-04T22:25:40.989Z,997.88
2017-11-04T22:30:37.545Z,997.85
2017-11-04T22:35:34.215Z,997.86
2017-11-04T22:40:29.396Z,997.84
2017-11-04T22:45:25.242Z,997.91
2017-11-04T22:50:22.091Z,997.89
2017-11-04T22:55:17.729Z,997.91
2017-11-04T23:00:14.067Z,997.97
2017-11-04T23:05:10.005Z,998.00
2017-11-04T23:10:05.861Z,998.11
2017-11-04T23:15:01.670Z,998.07
2017-11-04T23:19:58.546Z,998.01
2017-11-04T23:24:54.604Z,997.96
2017-11-04T23:34:50.244Z,998.18
2017-11-04T23:39:45.908Z,998.02
2017-11-04T23:44:41.634Z,997.98
2017-11-04T23:49:37.385Z,997.98
2017-11-04T23:54:33.085Z,997.92
2017-11-04T23:59:28.998Z,997.86
